Terminal Aerodrome Forecast
Issued by NWS

Home | Current Version | Previous Version | Text Only | Print | Product List | Glossary On
Versions: 1 2 3 4 5 6 7 8 9 10 11 12 13 14
603
FTUS43 KAPX 260947 AAA
TAFMBL
TAF AMD
KMBL 260947Z 2610/2706 00000KT 6SM BR SKC
      TEMPO 2610/2613 4SM BR
     FM261300 15005KT P6SM SKC
     FM261700 22007KT P6SM FEW040 SCT200
     FM262300 24006KT P6SM SCT025 BKN110
     FM270300 28007KT P6SM BKN025 BKN060=

USA.gov is the U.S. government's official web portal to all federal, state and local government web resources and services.